»·PEaware :: N378L KSBP-KSBA

N378L :: KSBP-KSBA

FLIGHT INFORMATION

Flight Status: Arrived
Operator: Privately registered:
United States
More flights under this callsign
Pilot: Wilver N. (25840)
Aircraft: CESSNA 172 SKYHAWK
(C172)
More flights by this aircraft type
Origin: KSBP San Luis Co Regl
United States
Destination: KSBA Santa Barbara Mun
United States
More flights between these airports :: More routes between these airports
Route:
File this flight plan on PilotEdge
Remarks:
Altitude:
(Current/Filed)
6,500ft
Speed:
(Current/Filed)
120kts
Departed: 10-Jan-21 03:22 PM
Arrived: 10-Jan-21 04:03 PM
Distance/Time
Traveled:
63nm/0:41
Distance/Time
To Go:
Arrived

Flight Plot

Page will automatically refresh every two minutes.


Map Options




Map Legend


Flown Route
Filed Route
Departure Airport
Arrival Airport
Navaid (VOR, NDB)
Fix

Horizontal Profiles

Position Reports

Time Latitude Longitude Heading Altitude Ground
Speed
10-Jan-21 15:12 35.235972 -120.635461 303 216ft 0kts
10-Jan-21 15:13 35.235972 -120.635461 303 216ft 0kts
10-Jan-21 15:14 35.235972 -120.635461 303 216ft 0kts
10-Jan-21 15:15 35.235972 -120.635461 303 216ft 0kts
10-Jan-21 15:16 35.235972 -120.635461 303 216ft 0kts
10-Jan-21 15:17 35.236100 -120.636203 244 216ft 5kts
10-Jan-21 15:18 35.233332 -120.632072 123 216ft 12kts
10-Jan-21 15:19 35.233216 -120.632042 297 216ft 0kts
10-Jan-21 15:20 35.233176 -120.632372 200 216ft 0kts
10-Jan-21 15:21 35.239370 -120.644647 304 522ft 86kts
10-Jan-21 15:22 35.253334 -120.670789 301 1538ft 92kts
10-Jan-21 15:23 35.245016 -120.689985 189 2224ft 97kts
10-Jan-21 15:24 35.217857 -120.685916 137 2503ft 110kts
10-Jan-21 15:25 35.196058 -120.658419 134 2795ft 109kts
10-Jan-21 15:26 35.174991 -120.632312 134 3194ft 106kts
10-Jan-21 15:27 35.151883 -120.610220 145 3592ft 105kts
10-Jan-21 15:28 35.127797 -120.590055 145 3992ft 104kts
10-Jan-21 15:29 35.104027 -120.570153 145 4390ft 103kts
10-Jan-21 15:30 35.080441 -120.550404 145 4790ft 102kts
10-Jan-21 15:31 35.057147 -120.530908 145 5190ft 101kts
10-Jan-21 15:32 35.032220 -120.510064 145 5281ft 116kts
10-Jan-21 15:33 35.004960 -120.487299 145 5279ft 117kts
10-Jan-21 15:34 34.978609 -120.465343 145 5280ft 113kts
10-Jan-21 15:35 34.951745 -120.445405 150 5280ft 113kts
10-Jan-21 15:36 34.924267 -120.426603 150 5280ft 113kts
10-Jan-21 15:37 34.896834 -120.407830 150 5280ft 113kts
10-Jan-21 15:38 34.870191 -120.387718 143 5280ft 113kts
10-Jan-21 15:40 34.844896 -120.365063 143 5280ft 113kts
10-Jan-21 15:41 34.819789 -120.342572 144 5280ft 113kts
10-Jan-21 15:42 34.794550 -120.319896 143 5280ft 113kts
10-Jan-21 15:43 34.769218 -120.297202 143 5280ft 113kts
10-Jan-21 15:44 34.743832 -120.274484 143 5280ft 113kts
10-Jan-21 15:45 34.718520 -120.251787 143 5280ft 113kts
10-Jan-21 15:46 34.693610 -120.229453 143 5335ft 111kts
10-Jan-21 15:47 34.668432 -120.206879 143 5335ft 112kts
10-Jan-21 15:48 34.644027 -120.183014 141 5335ft 113kts
10-Jan-21 15:49 34.618631 -120.160471 145 5335ft 113kts
10-Jan-21 15:50 34.592675 -120.138910 145 5335ft 113kts
10-Jan-21 15:51 34.566700 -120.117334 145 5335ft 113kts
10-Jan-21 15:52 34.540749 -120.095997 147 5335ft 113kts
10-Jan-21 15:53 34.513844 -120.075245 147 5204ft 121kts
10-Jan-21 15:54 34.484265 -120.052544 147 4807ft 127kts
10-Jan-21 15:54 34.463221 -120.030051 114 4456ft 112kts
10-Jan-21 15:56 34.454124 -119.992288 96 3903ft 97kts
10-Jan-21 15:57 34.451659 -119.959410 93 3356ft 98kts
10-Jan-21 15:57 34.450594 -119.931128 91 2925ft 101kts
10-Jan-21 15:58 34.452194 -119.898934 88 2449ft 88kts
10-Jan-21 15:59 34.453141 -119.870502 86 1862ft 76kts
10-Jan-21 16:00 34.449068 -119.849039 139 918ft 71kts
10-Jan-21 16:01 34.432163 -119.842029 163 101ft 63kts
10-Jan-21 16:02 34.422763 -119.838512 118 14ft 0kts
10-Jan-21 16:03 34.422628 -119.837286 73 13ft 12kts
10-Jan-21 16:04 34.422626 -119.836400 290 11ft 0kts
10-Jan-21 16:05 34.422626 -119.836400 290 11ft 0kts
10-Jan-21 16:06 34.422626 -119.836400 290 11ft 0kts
10-Jan-21 16:07 34.422626 -119.836400 290 11ft 0kts
10-Jan-21 16:08 34.422626 -119.836400 290 11ft 0kts
10-Jan-21 16:09 34.422626 -119.836400 290 11ft 0kts
10-Jan-21 16:10 34.422626 -119.836400 290 11ft 0kts
10-Jan-21 16:11 34.422626 -119.836400 290 11ft 0kts
10-Jan-21 16:12 34.422626 -119.836400 290 11ft 0kts
10-Jan-21 16:13 34.422626 -119.836400 290 11ft 0kts
10-Jan-21 16:14 34.422626 -119.836400 290 11ft 0kts
10-Jan-21 16:15 34.422626 -119.836400 290 11ft 0kts
10-Jan-21 16:16 34.422626 -119.836400 290 11ft 0kts

Navigation Log

Ident Type
Flight plan parsing failed, navigation log unavailable